sensor_id;sensor_type;location;lat;lon;timestamp;temperature;humidity
2999;DHT22;1509;51.964;7.628;2023-06-14T00:00:07;20.70;85.10
2999;DHT22;1509;51.964;7.628;2023-06-14T00:02:33;20.60;85.40
2999;DHT22;1509;51.964;7.628;2023-06-14T00:04:58;20.50;85.60
2999;DHT22;1509;51.964;7.628;2023-06-14T00:07:37;20.60;85.70
2999;DHT22;1509;51.964;7.628;2023-06-14T00:10:04;20.50;86.00
2999;DHT22;1509;51.964;7.628;2023-06-14T00:12:30;20.40;86.10
2999;DHT22;1509;51.964;7.628;2023-06-14T00:14:56;20.30;86.10
2999;DHT22;1509;51.964;7.628;2023-06-14T00:17:22;20.30;86.30
2999;DHT22;1509;51.964;7.628;2023-06-14T00:19:48;20.30;86.50
2999;DHT22;1509;51.964;7.628;2023-06-14T00:22:14;20.30;86.60
2999;DHT22;1509;51.964;7.628;2023-06-14T00:24:39;20.30;86.90
2999;DHT22;1509;51.964;7.628;2023-06-14T00:27:05;20.20;87.00
2999;DHT22;1509;51.964;7.628;2023-06-14T00:29:31;20.20;87.20
2999;DHT22;1509;51.964;7.628;2023-06-14T00:31:56;20.10;87.30
2999;DHT22;1509;51.964;7.628;2023-06-14T00:34:22;20.10;87.50
2999;DHT22;1509;51.964;7.628;2023-06-14T00:36:47;20.10;87.80
2999;DHT22;1509;51.964;7.628;2023-06-14T00:39:13;20.00;87.90
2999;DHT22;1509;51.964;7.628;2023-06-14T00:41:39;20.00;88.30
2999;DHT22;1509;51.964;7.628;2023-06-14T00:44:05;20.00;88.30
2999;DHT22;1509;51.964;7.628;2023-06-14T00:46:31;19.90;88.50
2999;DHT22;1509;51.964;7.628;2023-06-14T00:48:58;19.90;88.90
2999;DHT22;1509;51.964;7.628;2023-06-14T00:51:25;19.90;89.00
2999;DHT22;1509;51.964;7.628;2023-06-14T00:53:51;19.80;89.10
2999;DHT22;1509;51.964;7.628;2023-06-14T00:56:17;19.80;89.30
2999;DHT22;1509;51.964;7.628;2023-06-14T00:58:46;19.70;90.00
2999;DHT22;1509;51.964;7.628;2023-06-14T01:01:11;19.70;89.80
2999;DHT22;1509;51.964;7.628;2023-06-14T01:03:37;19.60;89.90
2999;DHT22;1509;51.964;7.628;2023-06-14T01:06:19;19.60;90.10
2999;DHT22;1509;51.964;7.628;2023-06-14T01:11:28;19.60;90.20
2999;DHT22;1509;51.964;7.628;2023-06-14T01:13:56;19.60;90.30
2999;DHT22;1509;51.964;7.628;2023-06-14T01:16:23;19.60;90.30
2999;DHT22;1509;51.964;7.628;2023-06-14T01:18:52;19.50;90.40
2999;DHT22;1509;51.964;7.628;2023-06-14T01:21:24;19.50;90.50
2999;DHT22;1509;51.964;7.628;2023-06-14T01:23:51;19.50;90.70
2999;DHT22;1509;51.964;7.628;2023-06-14T01:26:21;19.50;90.80
2999;DHT22;1509;51.964;7.628;2023-06-14T01:28:48;19.40;90.80
2999;DHT22;1509;51.964;7.628;2023-06-14T01:31:17;19.40;90.90
2999;DHT22;1509;51.964;7.628;2023-06-14T01:33:45;19.40;91.00
2999;DHT22;1509;51.964;7.628;2023-06-14T01:36:11;19.30;91.10
2999;DHT22;1509;51.964;7.628;2023-06-14T01:38:37;19.40;91.20
2999;DHT22;1509;51.964;7.628;2023-06-14T01:41:04;19.30;91.20
2999;DHT22;1509;51.964;7.628;2023-06-14T01:43:30;19.30;91.40
2999;DHT22;1509;51.964;7.628;2023-06-14T01:45:59;19.20;91.50
2999;DHT22;1509;51.964;7.628;2023-06-14T01:48:27;19.20;91.70
2999;DHT22;1509;51.964;7.628;2023-06-14T01:50:52;19.20;92.00
2999;DHT22;1509;51.964;7.628;2023-06-14T01:53:18;19.10;91.80
2999;DHT22;1509;51.964;7.628;2023-06-14T01:55:44;19.10;91.90
2999;DHT22;1509;51.964;7.628;2023-06-14T01:58:10;19.10;92.00
2999;DHT22;1509;51.964;7.628;2023-06-14T02:00:36;19.00;92.30
2999;DHT22;1509;51.964;7.628;2023-06-14T02:03:01;18.90;92.30
2999;DHT22;1509;51.964;7.628;2023-06-14T02:05:30;19.00;92.50
2999;DHT22;1509;51.964;7.628;2023-06-14T02:07:55;18.90;92.50
2999;DHT22;1509;51.964;7.628;2023-06-14T02:10:21;18.90;92.60
2999;DHT22;1509;51.964;7.628;2023-06-14T02:12:47;18.90;92.70
2999;DHT22;1509;51.964;7.628;2023-06-14T02:15:12;18.90;92.80
2999;DHT22;1509;51.964;7.628;2023-06-14T02:17:43;18.80;92.80
2999;DHT22;1509;51.964;7.628;2023-06-14T02:20:09;18.80;92.80
2999;DHT22;1509;51.964;7.628;2023-06-14T02:22:35;18.80;93.00
2999;DHT22;1509;51.964;7.628;2023-06-14T02:25:00;18.70;93.00
2999;DHT22;1509;51.964;7.628;2023-06-14T02:27:26;18.60;93.20
2999;DHT22;1509;51.964;7.628;2023-06-14T02:29:51;18.60;93.40
2999;DHT22;1509;51.964;7.628;2023-06-14T02:32:17;18.60;93.40
2999;DHT22;1509;51.964;7.628;2023-06-14T02:34:42;18.60;93.60
2999;DHT22;1509;51.964;7.628;2023-06-14T02:37:08;18.60;93.60
2999;DHT22;1509;51.964;7.628;2023-06-14T02:39:34;18.50;93.70
2999;DHT22;1509;51.964;7.628;2023-06-14T02:42:00;18.50;93.80
2999;DHT22;1509;51.964;7.628;2023-06-14T02:44:26;18.50;93.80
2999;DHT22;1509;51.964;7.628;2023-06-14T02:46:53;18.40;93.90
2999;DHT22;1509;51.964;7.628;2023-06-14T02:49:19;18.40;94.10
2999;DHT22;1509;51.964;7.628;2023-06-14T02:51:45;18.40;94.20
2999;DHT22;1509;51.964;7.628;2023-06-14T02:54:10;18.40;94.30
2999;DHT22;1509;51.964;7.628;2023-06-14T02:56:36;18.30;94.40
2999;DHT22;1509;51.964;7.628;2023-06-14T02:59:02;18.30;94.50
2999;DHT22;1509;51.964;7.628;2023-06-14T03:01:27;18.30;94.60
2999;DHT22;1509;51.964;7.628;2023-06-14T03:04:03;18.20;94.90
2999;DHT22;1509;51.964;7.628;2023-06-14T03:06:32;18.20;95.00
2999;DHT22;1509;51.964;7.628;2023-06-14T03:08:58;18.10;95.00
2999;DHT22;1509;51.964;7.628;2023-06-14T03:11:30;18.00;95.10
2999;DHT22;1509;51.964;7.628;2023-06-14T03:13:55;18.00;95.20
2999;DHT22;1509;51.964;7.628;2023-06-14T03:16:22;18.00;95.30
2999;DHT22;1509;51.964;7.628;2023-06-14T03:18:52;18.00;95.40
2999;DHT22;1509;51.964;7.628;2023-06-14T03:21:20;18.00;95.50
2999;DHT22;1509;51.964;7.628;2023-06-14T03:23:47;18.00;95.60
2999;DHT22;1509;51.964;7.628;2023-06-14T03:26:14;17.90;95.70
2999;DHT22;1509;51.964;7.628;2023-06-14T03:28:47;17.90;95.70
2999;DHT22;1509;51.964;7.628;2023-06-14T03:31:13;17.90;95.90
2999;DHT22;1509;51.964;7.628;2023-06-14T03:33:39;18.00;96.00
2999;DHT22;1509;51.964;7.628;2023-06-14T03:36:05;17.90;96.10
2999;DHT22;1509;51.964;7.628;2023-06-14T03:38:32;17.90;96.20
2999;DHT22;1509;51.964;7.628;2023-06-14T03:40:57;17.90;96.30
2999;DHT22;1509;51.964;7.628;2023-06-14T03:43:23;17.80;96.40
2999;DHT22;1509;51.964;7.628;2023-06-14T03:45:48;17.80;96.50
2999;DHT22;1509;51.964;7.628;2023-06-14T03:48:14;17.80;96.50
2999;DHT22;1509;51.964;7.628;2023-06-14T03:50:40;17.80;96.70
2999;DHT22;1509;51.964;7.628;2023-06-14T03:53:10;17.80;96.80
2999;DHT22;1509;51.964;7.628;2023-06-14T03:55:35;17.70;96.90
2999;DHT22;1509;51.964;7.628;2023-06-14T03:58:03;17.80;97.10
2999;DHT22;1509;51.964;7.628;2023-06-14T04:00:28;17.80;97.10
2999;DHT22;1509;51.964;7.628;2023-06-14T04:02:54;17.80;97.30
2999;DHT22;1509;51.964;7.628;2023-06-14T04:05:20;17.80;97.40
2999;DHT22;1509;51.964;7.628;2023-06-14T04:07:46;17.80;97.50
2999;DHT22;1509;51.964;7.628;2023-06-14T04:10:15;17.70;97.50
2999;DHT22;1509;51.964;7.628;2023-06-14T04:12:41;17.80;97.70
2999;DHT22;1509;51.964;7.628;2023-06-14T04:15:08;17.70;97.90
2999;DHT22;1509;51.964;7.628;2023-06-14T04:17:34;17.60;97.90
2999;DHT22;1509;51.964;7.628;2023-06-14T04:20:00;17.60;98.30
2999;DHT22;1509;51.964;7.628;2023-06-14T04:22:26;17.60;98.30
2999;DHT22;1509;51.964;7.628;2023-06-14T04:24:56;17.60;98.50
2999;DHT22;1509;51.964;7.628;2023-06-14T04:27:22;17.60;98.50
2999;DHT22;1509;51.964;7.628;2023-06-14T04:29:51;17.70;98.70
2999;DHT22;1509;51.964;7.628;2023-06-14T04:32:28;17.70;98.80
2999;DHT22;1509;51.964;7.628;2023-06-14T04:34:55;17.70;98.90
2999;DHT22;1509;51.964;7.628;2023-06-14T04:37:22;17.70;99.10
2999;DHT22;1509;51.964;7.628;2023-06-14T04:39:48;17.70;99.10
2999;DHT22;1509;51.964;7.628;2023-06-14T04:42:14;17.80;99.30
2999;DHT22;1509;51.964;7.628;2023-06-14T04:44:42;17.80;99.30
2999;DHT22;1509;51.964;7.628;2023-06-14T04:47:11;17.90;99.40
2999;DHT22;1509;51.964;7.628;2023-06-14T04:49:38;17.80;99.30
2999;DHT22;1509;51.964;7.628;2023-06-14T04:52:05;17.90;99.40
2999;DHT22;1509;51.964;7.628;2023-06-14T04:54:31;17.90;99.60
2999;DHT22;1509;51.964;7.628;2023-06-14T04:56:59;17.80;99.50
2999;DHT22;1509;51.964;7.628;2023-06-14T04:59:25;17.90;99.60
2999;DHT22;1509;51.964;7.628;2023-06-14T05:01:51;18.00;99.80
2999;DHT22;1509;51.964;7.628;2023-06-14T05:04:18;18.00;99.90
2999;DHT22;1509;51.964;7.628;2023-06-14T05:06:44;18.10;99.80
2999;DHT22;1509;51.964;7.628;2023-06-14T05:09:14;18.10;99.80
2999;DHT22;1509;51.964;7.628;2023-06-14T05:11:40;18.20;99.90
2999;DHT22;1509;51.964;7.628;2023-06-14T05:14:07;18.10;99.90
2999;DHT22;1509;51.964;7.628;2023-06-14T05:16:33;18.10;99.90
2999;DHT22;1509;51.964;7.628;2023-06-14T05:18:59;18.10;99.90
2999;DHT22;1509;51.964;7.628;2023-06-14T05:21:25;18.40;99.90
2999;DHT22;1509;51.964;7.628;2023-06-14T05:23:50;18.20;99.90
2999;DHT22;1509;51.964;7.628;2023-06-14T05:26:16;18.20;99.90
2999;DHT22;1509;51.964;7.628;2023-06-14T05:28:42;18.30;99.90
2999;DHT22;1509;51.964;7.628;2023-06-14T05:31:08;18.30;99.90
2999;DHT22;1509;51.964;7.628;2023-06-14T05:33:33;18.30;99.90
2999;DHT22;1509;51.964;7.628;2023-06-14T05:35:59;18.30;99.90
2999;DHT22;1509;51.964;7.628;2023-06-14T05:38:25;18.30;99.90
2999;DHT22;1509;51.964;7.628;2023-06-14T05:40:51;18.40;99.90
2999;DHT22;1509;51.964;7.628;2023-06-14T05:43:16;18.50;99.90
2999;DHT22;1509;51.964;7.628;2023-06-14T05:45:42;18.50;99.90
2999;DHT22;1509;51.964;7.628;2023-06-14T05:48:08;18.50;99.90
2999;DHT22;1509;51.964;7.628;2023-06-14T05:50:33;18.30;99.90
2999;DHT22;1509;51.964;7.628;2023-06-14T05:52:59;18.60;99.90
2999;DHT22;1509;51.964;7.628;2023-06-14T05:55:24;18.80;99.90
2999;DHT22;1509;51.964;7.628;2023-06-14T05:57:50;18.80;99.90
2999;DHT22;1509;51.964;7.628;2023-06-14T06:00:17;18.90;99.90
2999;DHT22;1509;51.964;7.628;2023-06-14T06:02:43;19.00;99.90
2999;DHT22;1509;51.964;7.628;2023-06-14T06:05:12;19.10;99.90
2999;DHT22;1509;51.964;7.628;2023-06-14T06:07:38;19.20;99.90
2999;DHT22;1509;51.964;7.628;2023-06-14T06:10:09;19.10;99.90
2999;DHT22;1509;51.964;7.628;2023-06-14T06:12:35;19.10;99.90
2999;DHT22;1509;51.964;7.628;2023-06-14T06:15:01;19.10;99.90
2999;DHT22;1509;51.964;7.628;2023-06-14T06:17:26;19.30;99.90
2999;DHT22;1509;51.964;7.628;2023-06-14T06:19:52;19.30;99.90
2999;DHT22;1509;51.964;7.628;2023-06-14T06:22:17;19.40;99.90
2999;DHT22;1509;51.964;7.628;2023-06-14T06:24:43;19.50;99.90
2999;DHT22;1509;51.964;7.628;2023-06-14T06:27:09;19.70;99.90
2999;DHT22;1509;51.964;7.628;2023-06-14T06:29:35;19.80;99.90
2999;DHT22;1509;51.964;7.628;2023-06-14T06:32:01;19.80;99.90
2999;DHT22;1509;51.964;7.628;2023-06-14T06:34:27;20.00;99.90
2999;DHT22;1509;51.964;7.628;2023-06-14T06:36:52;19.90;99.60
2999;DHT22;1509;51.964;7.628;2023-06-14T06:39:18;19.80;99.40
2999;DHT22;1509;51.964;7.628;2023-06-14T06:41:44;19.90;99.70
2999;DHT22;1509;51.964;7.628;2023-06-14T06:44:09;19.60;99.80
2999;DHT22;1509;51.964;7.628;2023-06-14T06:46:36;20.00;99.80
2999;DHT22;1509;51.964;7.628;2023-06-14T06:49:07;19.80;99.50
2999;DHT22;1509;51.964;7.628;2023-06-14T06:51:33;19.90;99.30
2999;DHT22;1509;51.964;7.628;2023-06-14T06:53:58;19.90;99.30
2999;DHT22;1509;51.964;7.628;2023-06-14T06:56:24;20.00;99.40
2999;DHT22;1509;51.964;7.628;2023-06-14T06:58:52;20.10;99.20
2999;DHT22;1509;51.964;7.628;2023-06-14T07:01:18;20.10;98.90
2999;DHT22;1509;51.964;7.628;2023-06-14T07:03:47;20.20;98.80
2999;DHT22;1509;51.964;7.628;2023-06-14T07:06:12;20.10;98.40
2999;DHT22;1509;51.964;7.628;2023-06-14T07:08:38;20.00;97.20
2999;DHT22;1509;51.964;7.628;2023-06-14T07:11:05;19.90;97.70
2999;DHT22;1509;51.964;7.628;2023-06-14T07:13:31;19.90;97.20
2999;DHT22;1509;51.964;7.628;2023-06-14T07:15:59;20.20;96.60
2999;DHT22;1509;51.964;7.628;2023-06-14T07:18:26;20.10;95.80
2999;DHT22;1509;51.964;7.628;2023-06-14T07:20:52;20.10;96.30
2999;DHT22;1509;51.964;7.628;2023-06-14T07:23:19;20.20;96.30
2999;DHT22;1509;51.964;7.628;2023-06-14T07:25:45;20.00;97.00
2999;DHT22;1509;51.964;7.628;2023-06-14T07:28:11;20.20;97.20
2999;DHT22;1509;51.964;7.628;2023-06-14T07:30:36;20.40;96.90
2999;DHT22;1509;51.964;7.628;2023-06-14T07:33:02;20.50;96.70
2999;DHT22;1509;51.964;7.628;2023-06-14T07:35:28;20.50;96.60
2999;DHT22;1509;51.964;7.628;2023-06-14T07:37:53;20.50;97.00
2999;DHT22;1509;51.964;7.628;2023-06-14T07:40:19;20.60;97.20
2999;DHT22;1509;51.964;7.628;2023-06-14T07:42:45;20.70;97.10
2999;DHT22;1509;51.964;7.628;2023-06-14T07:45:13;20.70;97.00
2999;DHT22;1509;51.964;7.628;2023-06-14T07:47:39;20.80;96.50
2999;DHT22;1509;51.964;7.628;2023-06-14T07:50:05;20.90;96.10
2999;DHT22;1509;51.964;7.628;2023-06-14T07:52:30;21.00;95.90
2999;DHT22;1509;51.964;7.628;2023-06-14T07:54:56;21.00;96.40
2999;DHT22;1509;51.964;7.628;2023-06-14T07:57:22;21.00;96.60
2999;DHT22;1509;51.964;7.628;2023-06-14T07:59:48;21.00;96.60
2999;DHT22;1509;51.964;7.628;2023-06-14T08:02:14;21.00;97.00
2999;DHT22;1509;51.964;7.628;2023-06-14T08:04:41;21.00;96.70
2999;DHT22;1509;51.964;7.628;2023-06-14T08:07:07;21.10;97.00
2999;DHT22;1509;51.964;7.628;2023-06-14T08:09:33;21.20;96.70
2999;DHT22;1509;51.964;7.628;2023-06-14T08:11:59;21.10;96.80
2999;DHT22;1509;51.964;7.628;2023-06-14T08:14:25;21.10;96.00
2999;DHT22;1509;51.964;7.628;2023-06-14T08:16:51;21.10;96.30
2999;DHT22;1509;51.964;7.628;2023-06-14T08:19:16;21.10;96.10
2999;DHT22;1509;51.964;7.628;2023-06-14T08:21:43;21.10;95.80
2999;DHT22;1509;51.964;7.628;2023-06-14T08:24:10;21.10;96.20
2999;DHT22;1509;51.964;7.628;2023-06-14T08:26:38;21.20;96.60
2999;DHT22;1509;51.964;7.628;2023-06-14T08:29:03;21.30;96.50
2999;DHT22;1509;51.964;7.628;2023-06-14T08:31:29;21.40;96.20
2999;DHT22;1509;51.964;7.628;2023-06-14T08:33:57;21.50;95.90
2999;DHT22;1509;51.964;7.628;2023-06-14T08:36:22;21.30;94.80
2999;DHT22;1509;51.964;7.628;2023-06-14T08:38:48;21.40;94.70
2999;DHT22;1509;51.964;7.628;2023-06-14T08:41:20;21.10;94.20
2999;DHT22;1509;51.964;7.628;2023-06-14T08:43:47;21.10;94.60
2999;DHT22;1509;51.964;7.628;2023-06-14T08:46:14;21.10;94.50
2999;DHT22;1509;51.964;7.628;2023-06-14T08:48:46;21.10;95.00
2999;DHT22;1509;51.964;7.628;2023-06-14T08:51:13;21.40;95.30
2999;DHT22;1509;51.964;7.628;2023-06-14T08:53:42;21.50;95.30
2999;DHT22;1509;51.964;7.628;2023-06-14T08:56:08;21.40;94.00
2999;DHT22;1509;51.964;7.628;2023-06-14T08:58:40;21.10;94.80
2999;DHT22;1509;51.964;7.628;2023-06-14T09:01:11;21.10;95.10
2999;DHT22;1509;51.964;7.628;2023-06-14T09:03:42;21.30;94.60
2999;DHT22;1509;51.964;7.628;2023-06-14T09:06:08;21.50;94.90
2999;DHT22;1509;51.964;7.628;2023-06-14T09:08:41;21.80;94.50
2999;DHT22;1509;51.964;7.628;2023-06-14T09:11:08;22.00;94.20
2999;DHT22;1509;51.964;7.628;2023-06-14T09:13:34;22.10;94.00
2999;DHT22;1509;51.964;7.628;2023-06-14T09:16:00;22.10;93.90
2999;DHT22;1509;51.964;7.628;2023-06-14T09:18:36;22.50;94.30
2999;DHT22;1509;51.964;7.628;2023-06-14T09:21:02;22.80;93.60
2999;DHT22;1509;51.964;7.628;2023-06-14T09:23:28;23.50;94.10
2999;DHT22;1509;51.964;7.628;2023-06-14T09:25:54;24.70;93.90
2999;DHT22;1509;51.964;7.628;2023-06-14T09:28:20;26.10;93.10
2999;DHT22;1509;51.964;7.628;2023-06-14T09:30:48;27.20;92.80
2999;DHT22;1509;51.964;7.628;2023-06-14T09:33:17;28.80;92.00
2999;DHT22;1509;51.964;7.628;2023-06-14T09:35:46;29.80;90.90
2999;DHT22;1509;51.964;7.628;2023-06-14T09:38:12;30.80;90.10
2999;DHT22;1509;51.964;7.628;2023-06-14T09:40:37;30.80;85.90
2999;DHT22;1509;51.964;7.628;2023-06-14T09:43:06;30.40;87.00
2999;DHT22;1509;51.964;7.628;2023-06-14T09:45:35;30.50;86.70
2999;DHT22;1509;51.964;7.628;2023-06-14T09:48:01;30.90;85.20
2999;DHT22;1509;51.964;7.628;2023-06-14T09:50:27;30.80;84.20
2999;DHT22;1509;51.964;7.628;2023-06-14T09:52:56;30.20;84.80
2999;DHT22;1509;51.964;7.628;2023-06-14T09:55:24;30.70;85.00
2999;DHT22;1509;51.964;7.628;2023-06-14T09:57:54;31.10;84.70
2999;DHT22;1509;51.964;7.628;2023-06-14T10:00:23;31.70;85.30
2999;DHT22;1509;51.964;7.628;2023-06-14T10:02:54;32.00;84.10
2999;DHT22;1509;51.964;7.628;2023-06-14T10:05:21;32.50;82.90
2999;DHT22;1509;51.964;7.628;2023-06-14T10:07:52;33.00;82.10
2999;DHT22;1509;51.964;7.628;2023-06-14T10:10:19;31.30;80.20
2999;DHT22;1509;51.964;7.628;2023-06-14T10:12:45;31.00;83.00
2999;DHT22;1509;51.964;7.628;2023-06-14T10:15:17;31.60;84.00
2999;DHT22;1509;51.964;7.628;2023-06-14T10:17:50;32.70;83.00
2999;DHT22;1509;51.964;7.628;2023-06-14T10:20:30;32.90;81.20
2999;DHT22;1509;51.964;7.628;2023-06-14T10:23:06;33.00;81.90
2999;DHT22;1509;51.964;7.628;2023-06-14T10:25:34;33.50;81.90
2999;DHT22;1509;51.964;7.628;2023-06-14T10:28:20;34.00;81.80
2999;DHT22;1509;51.964;7.628;2023-06-14T10:31:14;34.10;79.80
2999;DHT22;1509;51.964;7.628;2023-06-14T10:36:31;33.10;78.80
2999;DHT22;1509;51.964;7.628;2023-06-14T10:41:34;31.60;81.40
2999;DHT22;1509;51.964;7.628;2023-06-14T10:46:47;33.70;81.00
2999;DHT22;1509;51.964;7.628;2023-06-14T10:49:16;34.00;80.40
2999;DHT22;1509;51.964;7.628;2023-06-14T10:51:49;34.70;79.40
2999;DHT22;1509;51.964;7.628;2023-06-14T10:54:17;33.90;78.30
2999;DHT22;1509;51.964;7.628;2023-06-14T10:59:13;33.40;80.00
2999;DHT22;1509;51.964;7.628;2023-06-14T11:01:46;33.80;79.40
2999;DHT22;1509;51.964;7.628;2023-06-14T11:04:20;33.40;78.90
2999;DHT22;1509;51.964;7.628;2023-06-14T11:06:47;33.40;78.90
2999;DHT22;1509;51.964;7.628;2023-06-14T11:09:39;33.70;77.40
2999;DHT22;1509;51.964;7.628;2023-06-14T11:12:10;33.10;78.00
2999;DHT22;1509;51.964;7.628;2023-06-14T11:14:38;33.70;78.90
2999;DHT22;1509;51.964;7.628;2023-06-14T11:17:04;34.30;78.70
2999;DHT22;1509;51.964;7.628;2023-06-14T11:19:29;34.10;78.70
2999;DHT22;1509;51.964;7.628;2023-06-14T11:21:55;34.30;79.00
2999;DHT22;1509;51.964;7.628;2023-06-14T11:24:21;34.60;78.10
2999;DHT22;1509;51.964;7.628;2023-06-14T11:26:47;34.80;77.10
2999;DHT22;1509;51.964;7.628;2023-06-14T11:29:15;35.10;76.40
2999;DHT22;1509;51.964;7.628;2023-06-14T11:31:44;34.40;75.30
2999;DHT22;1509;51.964;7.628;2023-06-14T11:34:13;32.30;77.40
2999;DHT22;1509;51.964;7.628;2023-06-14T11:36:39;32.20;77.50
2999;DHT22;1509;51.964;7.628;2023-06-14T11:39:06;32.50;78.80
2999;DHT22;1509;51.964;7.628;2023-06-14T11:41:40;33.00;78.00
2999;DHT22;1509;51.964;7.628;2023-06-14T11:44:07;33.30;78.90
2999;DHT22;1509;51.964;7.628;2023-06-14T11:46:33;33.80;77.30
2999;DHT22;1509;51.964;7.628;2023-06-14T11:48:59;33.70;77.50
2999;DHT22;1509;51.964;7.628;2023-06-14T11:51:29;33.70;76.90
2999;DHT22;1509;51.964;7.628;2023-06-14T11:53:55;33.20;76.40
2999;DHT22;1509;51.964;7.628;2023-06-14T11:56:20;33.30;76.20
2999;DHT22;1509;51.964;7.628;2023-06-14T11:58:46;33.40;76.30
2999;DHT22;1509;51.964;7.628;2023-06-14T12:01:17;34.10;76.20
2999;DHT22;1509;51.964;7.628;2023-06-14T12:03:50;34.10;76.10
2999;DHT22;1509;51.964;7.628;2023-06-14T12:06:16;34.50;76.10
2999;DHT22;1509;51.964;7.628;2023-06-14T12:08:50;34.40;74.40
2999;DHT22;1509;51.964;7.628;2023-06-14T12:11:16;32.60;74.60
2999;DHT22;1509;51.964;7.628;2023-06-14T12:13:42;32.50;77.50
2999;DHT22;1509;51.964;7.628;2023-06-14T12:16:10;33.60;77.50
2999;DHT22;1509;51.964;7.628;2023-06-14T12:18:38;34.30;75.80
2999;DHT22;1509;51.964;7.628;2023-06-14T12:21:08;34.70;75.00
2999;DHT22;1509;51.964;7.628;2023-06-14T12:26:04;34.70;75.10
2999;DHT22;1509;51.964;7.628;2023-06-14T12:28:31;33.60;75.30
2999;DHT22;1509;51.964;7.628;2023-06-14T12:30:57;33.10;76.40
2999;DHT22;1509;51.964;7.628;2023-06-14T12:33:24;33.80;77.20
2999;DHT22;1509;51.964;7.628;2023-06-14T12:35:54;34.20;76.20
2999;DHT22;1509;51.964;7.628;2023-06-14T12:38:21;35.20;74.60
2999;DHT22;1509;51.964;7.628;2023-06-14T12:40:49;35.60;75.00
2999;DHT22;1509;51.964;7.628;2023-06-14T12:43:14;35.10;72.80
2999;DHT22;1509;51.964;7.628;2023-06-14T12:45:40;33.10;73.80
2999;DHT22;1509;51.964;7.628;2023-06-14T12:48:06;31.80;73.70
2999;DHT22;1509;51.964;7.628;2023-06-14T12:50:31;32.90;74.40
2999;DHT22;1509;51.964;7.628;2023-06-14T12:52:57;33.40;74.80
2999;DHT22;1509;51.964;7.628;2023-06-14T12:55:23;33.80;75.00
2999;DHT22;1509;51.964;7.628;2023-06-14T12:57:48;34.10;74.60
2999;DHT22;1509;51.964;7.628;2023-06-14T13:00:15;34.10;75.00
2999;DHT22;1509;51.964;7.628;2023-06-14T13:02:41;34.60;73.80
2999;DHT22;1509;51.964;7.628;2023-06-14T13:05:06;34.20;74.60
2999;DHT22;1509;51.964;7.628;2023-06-14T13:07:32;34.00;72.30
2999;DHT22;1509;51.964;7.628;2023-06-14T13:09:58;32.90;72.80
2999;DHT22;1509;51.964;7.628;2023-06-14T13:12:24;31.30;73.20
2999;DHT22;1509;51.964;7.628;2023-06-14T13:14:49;30.70;74.50
2999;DHT22;1509;51.964;7.628;2023-06-14T13:17:15;31.20;73.70
2999;DHT22;1509;51.964;7.628;2023-06-14T13:19:41;31.80;75.50
2999;DHT22;1509;51.964;7.628;2023-06-14T13:22:07;32.40;75.70
2999;DHT22;1509;51.964;7.628;2023-06-14T13:24:34;32.00;74.90
2999;DHT22;1509;51.964;7.628;2023-06-14T13:27:00;30.90;76.20
2999;DHT22;1509;51.964;7.628;2023-06-14T13:29:26;30.70;75.70
2999;DHT22;1509;51.964;7.628;2023-06-14T13:31:52;30.50;76.70
2999;DHT22;1509;51.964;7.628;2023-06-14T13:34:18;30.20;75.50
2999;DHT22;1509;51.964;7.628;2023-06-14T13:36:44;29.70;76.00
2999;DHT22;1509;51.964;7.628;2023-06-14T13:39:09;30.10;77.50
2999;DHT22;1509;51.964;7.628;2023-06-14T13:41:36;30.60;75.80
2999;DHT22;1509;51.964;7.628;2023-06-14T13:44:02;30.60;74.70
2999;DHT22;1509;51.964;7.628;2023-06-14T13:46:31;29.60;76.20
2999;DHT22;1509;51.964;7.628;2023-06-14T13:48:57;28.80;76.80
2999;DHT22;1509;51.964;7.628;2023-06-14T13:51:26;28.20;77.30
2999;DHT22;1509;51.964;7.628;2023-06-14T13:53:53;27.80;77.70
2999;DHT22;1509;51.964;7.628;2023-06-14T13:56:19;28.10;78.60
2999;DHT22;1509;51.964;7.628;2023-06-14T13:58:44;28.30;77.80
2999;DHT22;1509;51.964;7.628;2023-06-14T14:01:11;28.20;78.00
2999;DHT22;1509;51.964;7.628;2023-06-14T14:03:37;28.40;77.70
2999;DHT22;1509;51.964;7.628;2023-06-14T14:06:04;27.60;79.00
2999;DHT22;1509;51.964;7.628;2023-06-14T14:08:29;27.70;80.50
2999;DHT22;1509;51.964;7.628;2023-06-14T14:10:55;28.10;81.10
2999;DHT22;1509;51.964;7.628;2023-06-14T14:13:21;28.10;78.60
2999;DHT22;1509;51.964;7.628;2023-06-14T14:15:50;27.90;80.00
2999;DHT22;1509;51.964;7.628;2023-06-14T14:18:16;28.20;82.00
2999;DHT22;1509;51.964;7.628;2023-06-14T14:20:42;28.40;79.60
2999;DHT22;1509;51.964;7.628;2023-06-14T14:23:08;28.20;80.80
2999;DHT22;1509;51.964;7.628;2023-06-14T14:25:33;28.40;80.50
2999;DHT22;1509;51.964;7.628;2023-06-14T14:27:59;28.70;82.50
2999;DHT22;1509;51.964;7.628;2023-06-14T14:30:24;28.90;81.00
2999;DHT22;1509;51.964;7.628;2023-06-14T14:32:51;29.10;81.10
2999;DHT22;1509;51.964;7.628;2023-06-14T14:35:17;29.00;80.30
2999;DHT22;1509;51.964;7.628;2023-06-14T14:37:43;28.80;80.30
2999;DHT22;1509;51.964;7.628;2023-06-14T14:40:09;28.90;79.20
2999;DHT22;1509;51.964;7.628;2023-06-14T14:42:36;28.50;80.70
2999;DHT22;1509;51.964;7.628;2023-06-14T14:45:02;28.50;80.90
2999;DHT22;1509;51.964;7.628;2023-06-14T14:47:27;28.30;80.10
2999;DHT22;1509;51.964;7.628;2023-06-14T14:49:53;28.30;81.50
2999;DHT22;1509;51.964;7.628;2023-06-14T14:52:19;28.20;79.20
2999;DHT22;1509;51.964;7.628;2023-06-14T14:54:44;27.80;81.50
2999;DHT22;1509;51.964;7.628;2023-06-14T14:57:10;27.40;80.00
2999;DHT22;1509;51.964;7.628;2023-06-14T14:59:36;27.40;81.20
2999;DHT22;1509;51.964;7.628;2023-06-14T15:02:01;27.40;81.90
2999;DHT22;1509;51.964;7.628;2023-06-14T15:04:27;27.60;81.50
2999;DHT22;1509;51.964;7.628;2023-06-14T15:06:53;27.40;82.20
2999;DHT22;1509;51.964;7.628;2023-06-14T15:09:18;27.10;81.50
2999;DHT22;1509;51.964;7.628;2023-06-14T15:11:44;27.00;82.90
2999;DHT22;1509;51.964;7.628;2023-06-14T15:14:10;27.30;84.20
2999;DHT22;1509;51.964;7.628;2023-06-14T15:16:36;27.60;83.90
2999;DHT22;1509;51.964;7.628;2023-06-14T15:19:01;27.60;82.70
2999;DHT22;1509;51.964;7.628;2023-06-14T15:21:27;27.50;82.50
2999;DHT22;1509;51.964;7.628;2023-06-14T15:23:52;27.20;82.60
2999;DHT22;1509;51.964;7.628;2023-06-14T15:26:19;27.00;82.30
2999;DHT22;1509;51.964;7.628;2023-06-14T15:28:45;27.10;83.10
2999;DHT22;1509;51.964;7.628;2023-06-14T15:31:10;27.30;82.90
2999;DHT22;1509;51.964;7.628;2023-06-14T15:33:36;27.40;82.80
2999;DHT22;1509;51.964;7.628;2023-06-14T15:36:02;27.40;83.50
2999;DHT22;1509;51.964;7.628;2023-06-14T15:38:28;27.30;84.40
2999;DHT22;1509;51.964;7.628;2023-06-14T15:40:53;27.30;84.30
2999;DHT22;1509;51.964;7.628;2023-06-14T15:43:20;27.20;84.00
2999;DHT22;1509;51.964;7.628;2023-06-14T15:45:45;27.10;84.30
2999;DHT22;1509;51.964;7.628;2023-06-14T15:48:11;27.20;85.10
2999;DHT22;1509;51.964;7.628;2023-06-14T15:50:36;27.50;82.90
2999;DHT22;1509;51.964;7.628;2023-06-14T15:53:02;27.60;83.70
2999;DHT22;1509;51.964;7.628;2023-06-14T15:55:28;27.60;83.80
2999;DHT22;1509;51.964;7.628;2023-06-14T15:57:54;27.60;85.70
2999;DHT22;1509;51.964;7.628;2023-06-14T16:00:19;27.30;84.60
2999;DHT22;1509;51.964;7.628;2023-06-14T16:02:46;27.00;84.50
2999;DHT22;1509;51.964;7.628;2023-06-14T16:05:12;26.80;85.40
2999;DHT22;1509;51.964;7.628;2023-06-14T16:07:38;26.50;84.80
2999;DHT22;1509;51.964;7.628;2023-06-14T16:10:04;26.20;84.90
2999;DHT22;1509;51.964;7.628;2023-06-14T16:12:30;25.90;85.60
2999;DHT22;1509;51.964;7.628;2023-06-14T16:14:55;26.10;85.80